Terminal Aerodrome Forecast
Issued by NWS

Home | Current Version | Previous Version | Text Only | Print | Product List | Glossary On
Versions: 1 2 3 4 5 6 7 8 9 10 11 12 13 14 15 16 17
955
FTUS44 KLZK 211503 AAA
TAFPBF
TAF AMD
KPBF 211503Z 2115/2212 24008KT P6SM -RA OVC040
     FM211800 29005KT P6SM VCSH OVC015
     FM220600 01004KT 4SM BR OVC015
     FM220900 34005KT 4SM BR OVC007=

USA.gov is the U.S. government's official web portal to all federal, state and local government web resources and services.